createdAt,value
2018-03-23T00:01:59.076Z,99.90
2018-03-23T00:04:26.529Z,99.90
2018-03-23T00:06:54.002Z,99.90
2018-03-23T00:09:21.501Z,99.90
2018-03-23T00:11:48.991Z,99.90
2018-03-23T00:14:16.433Z,99.90
2018-03-23T00:16:43.942Z,99.90
2018-03-23T00:19:12.209Z,99.90
2018-03-23T00:21:39.614Z,99.90
2018-03-23T00:24:07.861Z,99.90
2018-03-23T00:26:36.073Z,99.90
2018-03-23T00:29:03.547Z,99.90
2018-03-23T00:31:31.008Z,99.90
2018-03-23T00:33:58.468Z,99.90
2018-03-23T00:36:25.908Z,99.90
2018-03-23T00:38:53.388Z,99.90
2018-03-23T00:41:20.834Z,99.90
2018-03-23T00:43:48.304Z,99.90
2018-03-23T00:46:15.766Z,99.90
2018-03-23T00:48:43.244Z,99.90
2018-03-23T00:51:10.690Z,99.90
2018-03-23T00:53:38.925Z,99.90
2018-03-23T00:56:06.382Z,99.90
2018-03-23T00:58:33.849Z,99.90
2018-03-23T01:01:01.299Z,99.90
2018-03-23T01:03:29.541Z,99.90
2018-03-23T01:05:56.984Z,99.90
2018-03-23T01:08:24.467Z,99.90
2018-03-23T01:10:52.017Z,99.90
2018-03-23T01:13:19.498Z,99.90
2018-03-23T01:15:46.950Z,99.90
2018-03-23T01:18:14.431Z,99.90
2018-03-23T01:20:41.880Z,99.90
2018-03-23T01:23:09.363Z,99.90
2018-03-23T01:25:37.576Z,99.90
2018-03-23T01:28:05.050Z,99.90
2018-03-23T01:30:32.491Z,99.90
2018-03-23T01:32:59.969Z,99.90
2018-03-23T01:35:27.425Z,99.90
2018-03-23T01:37:55.691Z,99.90
2018-03-23T01:40:23.143Z,99.90
2018-03-23T01:42:51.383Z,99.90
2018-03-23T01:45:19.606Z,99.90
2018-03-23T01:47:47.090Z,99.90
2018-03-23T01:50:14.546Z,99.90
2018-03-23T01:52:42.022Z,99.90
2018-03-23T01:55:09.479Z,99.90
2018-03-23T01:57:36.958Z,99.90
2018-03-23T02:00:04.409Z,99.90
2018-03-23T02:02:31.890Z,99.90
2018-03-23T02:04:59.339Z,99.90
2018-03-23T02:07:26.808Z,99.90
2018-03-23T02:09:54.257Z,99.90
2018-03-23T02:12:21.721Z,99.90
2018-03-23T02:14:49.172Z,99.90
2018-03-23T02:17:16.637Z,99.90
2018-03-23T02:19:44.090Z,99.90
2018-03-23T02:22:11.562Z,99.90
2018-03-23T02:24:39.009Z,99.90
2018-03-23T02:27:06.479Z,99.90
2018-03-23T02:29:33.926Z,99.90
2018-03-23T02:32:02.169Z,99.90
2018-03-23T02:34:29.609Z,99.90
2018-03-23T02:36:57.094Z,99.90
2018-03-23T02:39:24.553Z,99.90
2018-03-23T02:41:52.021Z,99.90
2018-03-23T02:44:19.468Z,99.90
2018-03-23T02:46:47.704Z,99.90
2018-03-23T02:49:15.149Z,99.90
2018-03-23T02:51:42.625Z,99.90
2018-03-23T02:54:10.073Z,99.90
2018-03-23T02:56:38.320Z,99.90
2018-03-23T02:59:05.761Z,99.90
2018-03-23T03:01:33.206Z,99.90
2018-03-23T03:04:01.500Z,99.90
2018-03-23T03:06:29.749Z,99.90
2018-03-23T03:08:57.261Z,99.90
2018-03-23T03:11:25.505Z,99.90
2018-03-23T03:13:52.978Z,99.90
2018-03-23T03:16:20.422Z,99.90
2018-03-23T03:18:47.900Z,99.90
2018-03-23T03:21:15.336Z,99.90
2018-03-23T03:23:42.882Z,99.90
2018-03-23T03:26:10.374Z,99.90
2018-03-23T03:28:38.625Z,99.90
2018-03-23T03:31:06.083Z,99.90
2018-03-23T03:33:33.561Z,99.90
2018-03-23T03:36:01.014Z,99.90
2018-03-23T03:38:28.502Z,99.90
2018-03-23T03:40:55.952Z,99.90
2018-03-23T03:43:23.425Z,99.90
2018-03-23T03:45:50.885Z,99.90
2018-03-23T03:48:18.363Z,99.90
2018-03-23T03:50:45.804Z,99.90
2018-03-23T03:53:13.273Z,99.90
2018-03-23T03:55:41.490Z,99.90
2018-03-23T03:58:08.961Z,99.90
2018-03-23T04:00:36.409Z,99.90
2018-03-23T04:03:03.891Z,99.90
2018-03-23T04:05:31.340Z,99.90
2018-03-23T04:07:59.592Z,99.90
2018-03-23T04:10:27.046Z,99.90
2018-03-23T04:12:54.522Z,99.90
2018-03-23T04:15:21.969Z,99.90
2018-03-23T04:17:49.445Z,99.90
2018-03-23T04:20:16.911Z,99.90
2018-03-23T04:22:44.391Z,99.90
2018-03-23T04:25:11.832Z,99.90
2018-03-23T04:27:39.309Z,99.90
2018-03-23T04:30:07.530Z,99.90
2018-03-23T04:32:35.000Z,99.90
2018-03-23T04:35:02.457Z,99.90
2018-03-23T04:37:29.954Z,99.90
2018-03-23T04:39:57.408Z,99.90
2018-03-23T04:42:24.864Z,99.90
2018-03-23T04:44:52.333Z,99.90
2018-03-23T04:47:19.776Z,99.90
2018-03-23T04:49:48.018Z,99.90
2018-03-23T04:52:15.469Z,99.90
2018-03-23T04:54:42.950Z,99.90
2018-03-23T04:57:10.406Z,99.90
2018-03-23T04:59:37.879Z,99.90
2018-03-23T05:02:05.329Z,99.90
2018-03-23T05:04:33.584Z,99.90
2018-03-23T05:07:01.048Z,99.90
2018-03-23T05:09:28.525Z,99.90
2018-03-23T05:11:55.976Z,99.90
2018-03-23T05:14:23.455Z,99.90
2018-03-23T05:16:51.674Z,99.90
2018-03-23T05:19:19.149Z,99.90
2018-03-23T05:21:47.365Z,99.90
2018-03-23T05:24:14.863Z,99.90
2018-03-23T05:26:42.321Z,99.90
2018-03-23T05:29:09.818Z,99.90
2018-03-23T05:31:37.301Z,99.90
2018-03-23T05:34:04.782Z,99.90
2018-03-23T05:36:32.217Z,99.90
2018-03-23T05:38:59.702Z,99.90
2018-03-23T05:41:27.167Z,99.90
2018-03-23T05:43:55.427Z,99.90
2018-03-23T05:46:22.881Z,99.90
2018-03-23T05:48:51.133Z,99.90
2018-03-23T05:51:18.593Z,99.90
2018-03-23T05:53:46.076Z,99.90
2018-03-23T05:56:13.533Z,99.90
2018-03-23T05:58:41.005Z,99.90
2018-03-23T06:01:08.461Z,99.90
2018-03-23T06:03:35.941Z,99.90
2018-03-23T06:06:03.401Z,99.90
2018-03-23T06:08:30.878Z,99.90
2018-03-23T06:10:58.326Z,99.90
2018-03-23T06:13:25.814Z,99.90
2018-03-23T06:15:54.019Z,99.90
2018-03-23T06:18:21.492Z,99.90
2018-03-23T06:20:48.945Z,99.90
2018-03-23T06:23:16.433Z,99.90
2018-03-23T06:25:43.908Z,99.90
2018-03-23T06:28:11.381Z,99.90
2018-03-23T06:30:38.864Z,99.90
2018-03-23T06:33:06.326Z,99.90
2018-03-23T06:35:33.810Z,99.90
2018-03-23T06:38:01.273Z,99.90
2018-03-23T06:40:28.764Z,99.90
2018-03-23T06:42:56.989Z,99.90
2018-03-23T06:45:24.461Z,99.90
2018-03-23T06:47:51.917Z,99.90
2018-03-23T06:50:19.405Z,99.90
2018-03-23T06:52:46.860Z,99.90
2018-03-23T06:55:14.341Z,99.90
2018-03-23T06:57:41.811Z,99.90
2018-03-23T07:00:09.281Z,99.90
2018-03-23T07:02:36.757Z,99.90
2018-03-23T07:05:04.241Z,99.90
2018-03-23T07:07:31.716Z,99.90
2018-03-23T07:09:59.181Z,99.90
2018-03-23T07:12:26.642Z,99.90
2018-03-23T07:14:54.153Z,99.90
2018-03-23T07:17:21.602Z,99.90
2018-03-23T07:19:49.084Z,99.90
2018-03-23T07:22:18.045Z,99.90
2018-03-23T07:24:45.522Z,99.90
2018-03-23T07:27:12.973Z,99.90
2018-03-23T07:29:40.449Z,99.90
2018-03-23T07:32:07.919Z,99.90
2018-03-23T07:34:35.394Z,99.90
2018-03-23T07:37:02.851Z,99.90
2018-03-23T07:39:31.086Z,99.90
2018-03-23T07:41:58.562Z,99.90
2018-03-23T07:44:26.063Z,99.90
2018-03-23T07:46:53.510Z,99.90
2018-03-23T07:49:20.993Z,99.90
2018-03-23T07:51:48.455Z,99.90
2018-03-23T07:54:16.000Z,99.90
2018-03-23T07:56:44.281Z,99.90
2018-03-23T07:59:11.770Z,99.90
2018-03-23T08:01:39.281Z,99.90
2018-03-23T08:04:06.781Z,99.90
2018-03-23T08:06:34.418Z,99.90
2018-03-23T08:09:01.901Z,99.90
2018-03-23T08:11:29.353Z,99.80
2018-03-23T08:13:56.825Z,99.90
2018-03-23T08:16:24.269Z,99.90
2018-03-23T08:18:51.749Z,99.90
2018-03-23T08:21:19.201Z,99.50
2018-03-23T08:23:46.665Z,99.70
2018-03-23T08:26:14.114Z,99.40
2018-03-23T08:28:42.363Z,97.20
2018-03-23T08:31:10.360Z,97.20
2018-03-23T08:33:37.798Z,97.30
2018-03-23T08:36:05.301Z,96.60
2018-03-23T08:38:32.773Z,96.80
2018-03-23T08:41:00.225Z,96.80
2018-03-23T08:43:27.714Z,96.30
2018-03-23T08:45:55.150Z,95.20
2018-03-23T08:48:22.630Z,95.30
2018-03-23T08:50:50.836Z,96.50
2018-03-23T08:53:18.329Z,96.10
2018-03-23T08:55:46.549Z,95.90
2018-03-23T08:58:14.025Z,95.90
2018-03-23T09:00:41.469Z,95.90
2018-03-23T09:03:09.718Z,96.70
2018-03-23T09:05:37.164Z,96.70
2018-03-23T09:08:04.644Z,96.40
2018-03-23T09:10:32.093Z,96.90
2018-03-23T09:12:59.577Z,97.50
2018-03-23T09:15:27.033Z,96.30
2018-03-23T09:17:54.523Z,95.50
2018-03-23T09:20:21.980Z,94.70
2018-03-23T09:22:49.468Z,94.80
2018-03-23T09:25:16.919Z,94.80
2018-03-23T09:27:44.425Z,94.30
2018-03-23T09:30:11.874Z,92.80
2018-03-23T09:32:39.336Z,93.00
2018-03-23T09:35:06.846Z,93.20
2018-03-23T09:37:34.328Z,92.70
2018-03-23T09:40:01.789Z,91.50
2018-03-23T09:42:29.274Z,91.30
2018-03-23T09:44:56.729Z,92.00
2018-03-23T09:47:24.274Z,90.80
2018-03-23T09:49:51.743Z,91.30
2018-03-23T09:52:19.192Z,91.40
2018-03-23T09:54:46.682Z,90.10
2018-03-23T09:57:14.207Z,88.80
2018-03-23T09:59:42.483Z,90.60
2018-03-23T10:02:09.947Z,90.60
2018-03-23T10:04:39.090Z,87.50
2018-03-23T10:07:06.543Z,87.60
2018-03-23T10:09:34.021Z,91.20
2018-03-23T10:12:02.245Z,90.10
2018-03-23T10:14:29.742Z,90.00
2018-03-23T10:16:57.209Z,90.10
2018-03-23T10:19:24.686Z,89.30
2018-03-23T10:21:52.150Z,89.50
2018-03-23T10:24:19.637Z,90.10
2018-03-23T10:26:47.092Z,90.70
2018-03-23T10:29:14.578Z,91.40
2018-03-23T10:31:42.024Z,91.10
2018-03-23T10:34:09.496Z,91.60
2018-03-23T10:36:36.963Z,91.10
2018-03-23T10:39:04.432Z,90.70
2018-03-23T10:41:31.937Z,91.10
2018-03-23T10:43:59.507Z,90.90
2018-03-23T10:46:26.958Z,91.80
2018-03-23T10:48:54.429Z,92.70
2018-03-23T10:51:21.877Z,92.00
2018-03-23T10:53:49.360Z,92.60
2018-03-23T10:56:16.809Z,93.30
2018-03-23T10:58:44.285Z,92.10
2018-03-23T11:01:17.449Z,92.60
2018-03-23T11:03:44.929Z,92.50
2018-03-23T11:06:12.372Z,91.60
2018-03-23T11:08:39.842Z,90.40
2018-03-23T11:11:07.291Z,88.70
2018-03-23T11:13:34.757Z,89.90
2018-03-23T11:16:02.213Z,88.70
2018-03-23T11:18:29.753Z,88.80
2018-03-23T11:20:57.197Z,89.60
2018-03-23T11:23:24.668Z,90.10
2018-03-23T11:25:52.113Z,89.30
2018-03-23T11:28:19.587Z,90.00
2018-03-23T11:30:47.040Z,89.10
2018-03-23T11:33:14.512Z,89.10
2018-03-23T11:35:41.969Z,87.50
2018-03-23T11:38:10.533Z,83.60
2018-03-23T11:40:37.970Z,83.60
2018-03-23T11:43:05.445Z,81.20
2018-03-23T11:45:32.890Z,78.60
2018-03-23T11:48:00.368Z,75.10
2018-03-23T11:50:27.808Z,74.40
2018-03-23T11:52:56.041Z,76.80
2018-03-23T11:55:23.498Z,76.80
2018-03-23T11:57:50.989Z,75.30
2018-03-23T12:00:18.433Z,77.70
2018-03-23T12:02:45.929Z,77.50
2018-03-23T12:05:13.382Z,76.70
2018-03-23T12:07:40.891Z,77.60
2018-03-23T12:10:08.326Z,76.40
2018-03-23T12:12:35.800Z,76.50
2018-03-23T12:15:03.258Z,76.50
2018-03-23T12:17:30.731Z,77.70
2018-03-23T12:19:58.182Z,77.90
2018-03-23T12:22:26.461Z,74.20
2018-03-23T12:24:54.694Z,74.70
2018-03-23T12:27:22.167Z,74.60
2018-03-23T12:29:49.641Z,73.00
2018-03-23T12:32:17.129Z,75.30
2018-03-23T12:34:44.599Z,75.30
2018-03-23T12:37:12.061Z,76.00
2018-03-23T12:39:39.498Z,77.50
2018-03-23T12:42:06.971Z,78.10
2018-03-23T12:44:34.401Z,78.20
2018-03-23T12:47:01.860Z,78.50
2018-03-23T12:49:29.335Z,77.80
2018-03-23T12:51:56.789Z,77.10
2018-03-23T12:54:24.261Z,74.00
2018-03-23T12:56:51.697Z,75.10
2018-03-23T12:59:19.174Z,72.90
2018-03-23T13:01:46.613Z,72.10
2018-03-23T13:04:14.852Z,71.90
2018-03-23T13:06:42.337Z,71.90
2018-03-23T13:09:09.780Z,72.50
2018-03-23T13:11:37.237Z,71.90
2018-03-23T13:14:04.706Z,71.10
2018-03-23T13:16:32.176Z,68.20
2018-03-23T13:18:59.640Z,70.70
2018-03-23T13:21:27.086Z,69.40
2018-03-23T13:23:54.565Z,66.90
2018-03-23T13:26:22.777Z,64.80
2018-03-23T13:28:50.454Z,64.80
2018-03-23T13:31:18.657Z,59.80
2018-03-23T13:33:46.143Z,59.80
2018-03-23T13:36:13.587Z,58.10
2018-03-23T13:38:41.061Z,57.80
2018-03-23T13:41:08.508Z,56.50
2018-03-23T13:43:36.753Z,57.90
2018-03-23T13:46:04.198Z,57.90
2018-03-23T13:48:31.661Z,57.50
2018-03-23T13:50:59.113Z,57.60
2018-03-23T13:53:27.361Z,56.70
2018-03-23T13:55:54.829Z,56.70
2018-03-23T13:58:22.301Z,55.70
2018-03-23T14:00:55.485Z,56.20
2018-03-23T14:03:22.955Z,60.70
2018-03-23T14:05:50.404Z,62.50
2018-03-23T14:08:17.881Z,60.80
2018-03-23T14:10:45.320Z,61.00
2018-03-23T14:13:13.568Z,62.60
2018-03-23T14:15:41.040Z,62.60
2018-03-23T14:18:08.607Z,60.10
2018-03-23T14:20:36.065Z,61.20
2018-03-23T14:23:03.544Z,62.90
2018-03-23T14:25:30.989Z,63.30
2018-03-23T14:27:58.473Z,63.90
2018-03-23T14:30:25.926Z,64.10
2018-03-23T14:32:54.149Z,67.50
2018-03-23T14:35:21.606Z,67.50
2018-03-23T14:37:49.092Z,67.40
2018-03-23T14:40:16.544Z,68.70
2018-03-23T14:42:44.019Z,67.20
2018-03-23T14:45:11.493Z,65.50
2018-03-23T14:47:38.977Z,65.60
2018-03-23T14:50:06.413Z,64.60
2018-03-23T14:52:33.886Z,65.00
2018-03-23T14:55:01.329Z,65.50
2018-03-23T14:57:29.578Z,64.60
2018-03-23T14:59:57.018Z,64.70
2018-03-23T15:02:24.561Z,66.60
2018-03-23T15:04:52.000Z,64.80
2018-03-23T15:07:19.566Z,62.90
2018-03-23T15:09:47.016Z,62.70
2018-03-23T15:12:14.536Z,64.30
2018-03-23T15:14:41.980Z,63.70
2018-03-23T15:17:09.465Z,63.20
2018-03-23T15:19:36.917Z,61.80
2018-03-23T15:22:04.401Z,62.30
2018-03-23T15:24:31.853Z,61.70
2018-03-23T15:26:59.326Z,60.20
2018-03-23T15:29:26.773Z,58.60
2018-03-23T15:31:54.244Z,57.60
2018-03-23T15:34:21.705Z,57.60
2018-03-23T15:36:49.968Z,59.00
2018-03-23T15:39:17.430Z,58.90
2018-03-23T15:41:44.884Z,59.30
2018-03-23T15:44:13.121Z,59.60
2018-03-23T15:46:40.577Z,59.80
2018-03-23T15:49:08.822Z,60.60
2018-03-23T15:51:36.271Z,60.60
2018-03-23T15:54:03.744Z,62.40
2018-03-23T15:56:31.184Z,67.10
2018-03-23T15:58:59.426Z,69.00
2018-03-23T16:01:26.864Z,68.90
2018-03-23T16:03:54.330Z,67.90
2018-03-23T16:06:21.780Z,69.00
2018-03-23T16:08:49.255Z,68.80
2018-03-23T16:11:17.469Z,70.90
2018-03-23T16:13:45.074Z,70.90
2018-03-23T16:16:12.517Z,70.50
2018-03-23T16:18:40.016Z,69.30
2018-03-23T16:21:07.478Z,69.00
2018-03-23T16:23:34.950Z,69.80
2018-03-23T16:26:02.421Z,68.20
2018-03-23T16:28:29.899Z,67.40
2018-03-23T16:30:57.356Z,68.10
2018-03-23T16:33:24.824Z,68.80
2018-03-23T16:35:52.278Z,67.80
2018-03-23T16:38:19.752Z,69.00
2018-03-23T16:40:47.967Z,69.80
2018-03-23T16:43:15.406Z,69.80
2018-03-23T16:45:42.891Z,70.70
2018-03-23T16:48:10.328Z,71.30
2018-03-23T16:50:38.561Z,71.50
2018-03-23T16:53:06.024Z,71.50
2018-03-23T16:55:33.493Z,72.50
2018-03-23T16:58:00.969Z,71.40
2018-03-23T17:00:28.405Z,71.60
2018-03-23T17:02:55.902Z,71.60
2018-03-23T17:05:23.340Z,72.40
2018-03-23T17:07:51.553Z,85.40
2018-03-23T17:10:19.024Z,85.40
2018-03-23T17:12:46.465Z,87.50
2018-03-23T17:15:14.728Z,87.40
2018-03-23T17:17:42.170Z,87.40
2018-03-23T17:20:09.681Z,89.30
2018-03-23T17:22:37.084Z,90.50
2018-03-23T17:25:04.557Z,90.10
2018-03-23T17:27:32.000Z,90.60
2018-03-23T17:29:59.468Z,90.80
2018-03-23T17:32:26.925Z,90.60
2018-03-23T17:34:54.393Z,91.10
2018-03-23T17:37:21.850Z,91.60
2018-03-23T17:39:49.416Z,92.40
2018-03-23T17:42:16.865Z,92.60
2018-03-23T17:44:44.344Z,93.20
2018-03-23T17:47:11.789Z,94.20
2018-03-23T17:49:39.312Z,94.80
2018-03-23T17:52:06.768Z,95.40
2018-03-23T17:54:34.248Z,95.80
2018-03-23T17:57:01.693Z,96.80
2018-03-23T17:59:29.158Z,96.30
2018-03-23T18:01:56.597Z,96.60
2018-03-23T18:04:24.850Z,97.20
2018-03-23T18:06:52.328Z,97.20
2018-03-23T18:09:19.761Z,97.90
2018-03-23T18:11:47.233Z,98.50
2018-03-23T18:14:14.673Z,99.10
2018-03-23T18:16:42.919Z,99.90
2018-03-23T18:19:10.345Z,99.60
2018-03-23T18:21:37.810Z,99.90
2018-03-23T18:24:06.010Z,99.30
2018-03-23T18:26:33.486Z,99.20
2018-03-23T18:29:00.917Z,99.30
2018-03-23T18:31:28.392Z,99.70
2018-03-23T18:33:55.832Z,99.90
2018-03-23T18:36:23.307Z,99.90
2018-03-23T18:38:50.754Z,99.90
2018-03-23T18:41:18.233Z,99.90
2018-03-23T18:43:45.666Z,99.90
2018-03-23T18:46:13.148Z,99.90
2018-03-23T18:48:40.584Z,99.90
2018-03-23T18:51:08.107Z,99.90
2018-03-23T18:53:35.594Z,99.90
2018-03-23T18:56:03.786Z,99.90
2018-03-23T18:58:31.237Z,99.90
2018-03-23T19:00:58.769Z,99.90
2018-03-23T19:03:26.195Z,99.90
2018-03-23T19:05:53.673Z,99.90
2018-03-23T19:08:21.130Z,99.90
2018-03-23T19:10:48.701Z,99.90
2018-03-23T19:13:16.173Z,99.90
2018-03-23T19:15:43.711Z,99.90
2018-03-23T19:18:11.102Z,99.90
2018-03-23T19:20:38.573Z,99.90
2018-03-23T19:23:06.008Z,99.90
2018-03-23T19:25:34.249Z,99.90
2018-03-23T19:28:01.845Z,99.90
2018-03-23T19:30:29.326Z,99.90
2018-03-23T19:32:57.601Z,99.90
2018-03-23T19:35:25.083Z,99.90
2018-03-23T19:37:52.546Z,99.90
2018-03-23T19:40:20.026Z,99.90
2018-03-23T19:42:47.465Z,99.90
2018-03-23T19:45:14.999Z,99.90
2018-03-23T19:47:44.014Z,99.90
2018-03-23T19:50:11.522Z,99.90
2018-03-23T19:52:38.987Z,99.90
2018-03-23T19:55:08.009Z,99.90
2018-03-23T19:57:35.566Z,99.90
2018-03-23T20:00:03.115Z,99.90
2018-03-23T20:02:30.599Z,99.90
2018-03-23T20:04:58.048Z,99.90
2018-03-23T20:07:25.533Z,99.90
2018-03-23T20:09:52.983Z,99.90
2018-03-23T20:12:21.227Z,99.90
2018-03-23T20:14:49.463Z,99.90
2018-03-23T20:17:18.135Z,99.90
2018-03-23T20:19:45.609Z,99.90
2018-03-23T20:22:13.051Z,99.90
2018-03-23T20:24:40.489Z,99.90
2018-03-23T20:27:13.590Z,99.90
2018-03-23T20:29:41.898Z,99.90
2018-03-23T20:32:15.085Z,99.90
2018-03-23T20:34:42.529Z,99.90
2018-03-23T20:37:10.769Z,99.90
2018-03-23T20:39:38.241Z,99.90
2018-03-23T20:42:05.734Z,99.90
2018-03-23T20:44:33.175Z,99.90
2018-03-23T20:47:00.672Z,99.90
2018-03-23T20:49:28.112Z,99.90
2018-03-23T20:51:55.579Z,99.90
2018-03-23T20:54:23.049Z,99.90
2018-03-23T20:56:50.510Z,99.90
2018-03-23T20:59:17.962Z,99.90
2018-03-23T21:01:45.432Z,99.90
2018-03-23T21:04:13.643Z,99.90
2018-03-23T21:06:41.139Z,99.90
2018-03-23T21:09:08.576Z,99.90
2018-03-23T21:11:36.029Z,99.90
2018-03-23T21:14:05.105Z,99.90
2018-03-23T21:16:32.563Z,99.90
2018-03-23T21:19:00.038Z,99.90
2018-03-23T21:21:27.477Z,99.90
2018-03-23T21:23:54.951Z,99.90
2018-03-23T21:26:22.400Z,99.90
2018-03-23T21:28:50.626Z,99.90
2018-03-23T21:31:18.071Z,99.90
2018-03-23T21:33:45.652Z,99.90
2018-03-23T21:36:13.093Z,99.90
2018-03-23T21:38:40.562Z,99.90
2018-03-23T21:41:08.002Z,99.90
2018-03-23T21:43:35.476Z,99.90
2018-03-23T21:46:03.003Z,99.90
2018-03-23T21:48:30.475Z,99.90
2018-03-23T21:50:57.908Z,99.90
2018-03-23T21:53:25.390Z,99.90
2018-03-23T21:55:53.606Z,99.90
2018-03-23T21:58:21.084Z,99.90
2018-03-23T22:00:48.545Z,99.90
2018-03-23T22:03:16.018Z,99.90
2018-03-23T22:05:43.456Z,99.90
2018-03-23T22:08:12.496Z,99.90
2018-03-23T22:10:39.946Z,99.90
2018-03-23T22:13:08.185Z,99.90
2018-03-23T22:15:35.658Z,99.90
2018-03-23T22:18:03.132Z,99.90
2018-03-23T22:20:30.573Z,99.90
2018-03-23T22:22:58.078Z,99.90
2018-03-23T22:25:25.478Z,99.90
2018-03-23T22:27:52.949Z,99.90
2018-03-23T22:30:20.404Z,99.90
2018-03-23T22:32:47.861Z,99.90
2018-03-23T22:35:15.301Z,99.90
2018-03-23T22:37:42.766Z,99.90
2018-03-23T22:40:10.207Z,99.90
2018-03-23T22:42:38.437Z,99.90
2018-03-23T22:45:05.878Z,99.90
2018-03-23T22:47:34.108Z,99.90
2018-03-23T22:50:01.559Z,99.90
2018-03-23T22:52:29.037Z,99.90
2018-03-23T22:54:56.501Z,99.90
2018-03-23T22:57:23.965Z,99.90
2018-03-23T22:59:51.407Z,99.90
2018-03-23T23:02:19.650Z,99.90
2018-03-23T23:04:47.089Z,99.90
2018-03-23T23:07:15.522Z,99.90
2018-03-23T23:09:42.956Z,99.90
2018-03-23T23:12:10.424Z,99.90
2018-03-23T23:14:37.866Z,99.90
2018-03-23T23:17:05.336Z,99.90
2018-03-23T23:19:32.918Z,99.90
2018-03-23T23:22:01.145Z,99.90
2018-03-23T23:24:28.597Z,99.90
2018-03-23T23:26:56.071Z,99.90
2018-03-23T23:29:23.509Z,99.90
2018-03-23T23:31:50.977Z,99.90
2018-03-23T23:34:18.412Z,99.90
2018-03-23T23:36:45.890Z,99.90
2018-03-23T23:39:13.324Z,99.90
2018-03-23T23:41:40.793Z,99.90
2018-03-23T23:44:08.245Z,99.90
2018-03-23T23:46:36.487Z,99.90
2018-03-23T23:49:03.932Z,99.90
2018-03-23T23:51:31.373Z,99.90
2018-03-23T23:53:59.604Z,99.90
2018-03-23T23:56:27.044Z,99.90
2018-03-23T23:58:54.514Z,99.90
